createdAt,value
2023-10-11T00:00:30.225Z,100994.22
2023-10-11T00:03:33.857Z,100996.91
2023-10-11T00:06:37.589Z,100985.41
2023-10-11T00:09:41.676Z,100979.84
2023-10-11T00:12:45.199Z,100967.25
2023-10-11T00:15:51.638Z,100975.09
2023-10-11T00:18:57.677Z,100967.25
2023-10-11T00:22:02.415Z,100973.44
2023-10-11T00:25:06.120Z,100972.87
2023-10-11T00:28:10.353Z,100975.16
2023-10-11T00:31:19.062Z,100981.28
2023-10-11T00:34:22.801Z,100975.87
2023-10-11T00:37:26.567Z,100972.06
2023-10-11T00:40:33.453Z,100973.75
2023-10-11T00:43:43.310Z,100970.97
2023-10-11T00:47:01.680Z,100968.09
2023-10-11T00:50:07.052Z,100957.81
2023-10-11T00:53:11.645Z,100970.84
2023-10-11T00:56:16.181Z,100958.56
2023-10-11T00:59:22.657Z,100959.22
2023-10-11T01:02:25.609Z,100960.13
2023-10-11T01:05:30.361Z,100967.03
2023-10-11T01:08:40.892Z,100958.25
2023-10-11T01:11:45.378Z,100972.03
2023-10-11T01:15:00.635Z,100964.03
2023-10-11T01:18:04.874Z,100970.38
2023-10-11T01:21:14.127Z,100969.50
2023-10-11T01:24:18.195Z,100957.62
2023-10-11T01:27:23.651Z,100951.34
2023-10-11T01:30:28.702Z,100961.91
2023-10-11T01:33:31.645Z,100952.91
2023-10-11T01:36:36.000Z,100947.69
2023-10-11T01:39:42.076Z,100942.37
2023-10-11T01:42:45.553Z,100938.37
2023-10-11T01:45:48.556Z,100944.31
2023-10-11T01:48:53.191Z,100947.84
2023-10-11T01:51:56.280Z,100954.28
2023-10-11T01:55:03.160Z,100961.56
2023-10-11T01:58:09.024Z,100966.03
2023-10-11T02:01:27.560Z,100960.50
2023-10-11T02:04:32.303Z,100951.81
2023-10-11T02:07:35.312Z,100953.47
2023-10-11T02:10:39.011Z,100942.19
2023-10-11T02:13:43.941Z,100953.09
2023-10-11T02:16:47.231Z,100939.38
2023-10-11T02:19:51.230Z,100939.69
2023-10-11T02:22:57.082Z,100933.72
2023-10-11T02:26:00.605Z,100936.06
2023-10-11T02:29:08.183Z,100947.44
2023-10-11T02:32:11.497Z,100941.44
2023-10-11T02:35:15.481Z,100936.50
2023-10-11T02:38:41.833Z,100941.75
2023-10-11T02:41:51.960Z,100940.66
2023-10-11T02:44:55.333Z,100941.75
2023-10-11T02:48:04.096Z,100942.81
2023-10-11T02:51:15.169Z,100938.09
2023-10-11T02:54:18.877Z,100941.31
2023-10-11T02:57:22.679Z,100938.97
2023-10-11T03:00:25.983Z,100943.97
2023-10-11T03:03:30.206Z,100949.56
2023-10-11T03:06:37.027Z,100955.66
2023-10-11T03:09:42.252Z,100955.78
2023-10-11T03:12:45.854Z,100948.25
2023-10-11T03:15:56.286Z,100949.88
2023-10-11T03:19:00.965Z,100961.69
2023-10-11T03:22:04.866Z,100948.13
2023-10-11T03:25:14.754Z,100940.44
2023-10-11T03:28:23.029Z,100942.50
2023-10-11T03:31:30.662Z,100929.16
2023-10-11T03:34:34.718Z,100924.03
2023-10-11T03:37:41.712Z,100931.94
2023-10-11T03:40:57.290Z,100933.47
2023-10-11T03:44:11.214Z,100937.84
2023-10-11T03:47:16.143Z,100932.09
2023-10-11T03:50:26.005Z,100938.47
2023-10-11T03:53:33.764Z,100933.38
2023-10-11T03:56:36.935Z,100934.59
2023-10-11T03:59:41.647Z,100943.50
2023-10-11T04:02:44.516Z,100941.91
2023-10-11T04:05:49.399Z,100947.44
2023-10-11T04:08:57.558Z,100950.72
2023-10-11T04:12:02.241Z,100948.25
2023-10-11T04:15:19.468Z,100943.53
2023-10-11T04:18:35.211Z,100949.72
2023-10-11T04:21:55.756Z,100938.63
2023-10-11T04:25:08.183Z,100928.37
2023-10-11T04:28:13.953Z,100935.94
2023-10-11T04:31:32.898Z,100939.63
2023-10-11T04:34:40.119Z,100935.03
2023-10-11T04:37:51.685Z,100940.84
2023-10-11T04:40:54.465Z,100940.75
2023-10-11T04:44:07.992Z,100931.03
2023-10-11T04:47:12.217Z,100927.81
2023-10-11T04:50:16.094Z,100924.50
2023-10-11T04:53:19.714Z,100927.31
2023-10-11T04:56:46.848Z,100933.75
2023-10-11T04:59:50.365Z,100942.19
2023-10-11T05:02:59.960Z,100941.94
2023-10-11T05:06:11.058Z,100944.09
2023-10-11T05:09:17.188Z,100943.41
2023-10-11T05:12:23.619Z,100948.50
2023-10-11T05:15:31.894Z,100942.72
2023-10-11T05:18:39.696Z,100949.53
2023-10-11T05:21:46.566Z,100950.25
2023-10-11T05:25:01.536Z,100945.47
2023-10-11T05:28:23.438Z,100949.41
2023-10-11T05:31:36.127Z,100952.59
2023-10-11T05:35:15.089Z,100951.81
2023-10-11T05:38:39.629Z,100957.50
2023-10-11T05:42:02.039Z,100959.53
2023-10-11T05:45:24.227Z,100952.56
2023-10-11T05:48:46.450Z,100957.47
2023-10-11T05:51:51.971Z,100953.28
2023-10-11T05:54:55.784Z,100965.81
2023-10-11T05:58:05.881Z,100971.59
2023-10-11T06:01:15.165Z,100973.31
2023-10-11T06:04:18.579Z,100973.75
2023-10-11T06:07:23.003Z,100971.50
2023-10-11T06:10:31.268Z,100975.91
2023-10-11T06:13:34.110Z,100974.34
2023-10-11T06:16:41.118Z,100974.34
2023-10-11T06:19:55.304Z,100965.97
2023-10-11T06:23:03.827Z,100967.16
2023-10-11T06:26:39.617Z,100982.75
2023-10-11T06:29:56.029Z,100982.00
2023-10-11T06:33:03.412Z,100982.53
2023-10-11T06:36:16.217Z,100984.59
2023-10-11T06:39:36.789Z,100986.31
2023-10-11T06:42:44.095Z,100987.59
2023-10-11T06:45:51.167Z,100991.31
2023-10-11T06:48:57.047Z,100984.22
2023-10-11T06:52:03.093Z,100979.50
2023-10-11T06:55:09.804Z,100982.81
2023-10-11T06:58:17.741Z,100982.91
2023-10-11T07:01:22.416Z,100982.19
2023-10-11T07:04:26.066Z,100976.72
2023-10-11T07:07:34.398Z,100977.59
2023-10-11T07:10:42.254Z,100983.25
2023-10-11T07:13:57.058Z,100986.16
2023-10-11T07:17:02.360Z,100983.44
2023-10-11T07:20:28.967Z,100985.53
2023-10-11T07:23:47.694Z,100985.97
2023-10-11T07:26:51.158Z,100989.22
2023-10-11T07:29:56.486Z,100978.00
2023-10-11T07:33:05.741Z,100982.00
2023-10-11T07:36:13.414Z,100988.88
2023-10-11T07:39:18.174Z,100989.25
2023-10-11T07:42:27.710Z,100987.66
2023-10-11T07:45:30.991Z,100982.50
2023-10-11T07:48:34.863Z,100978.91
2023-10-11T07:51:42.415Z,100981.69
2023-10-11T07:54:45.304Z,100974.12
2023-10-11T07:57:48.977Z,100982.13
2023-10-11T08:00:52.755Z,100978.09
2023-10-11T08:03:56.263Z,100979.72
2023-10-11T08:07:08.150Z,100974.88
2023-10-11T08:10:40.841Z,100976.47
2023-10-11T08:13:45.338Z,100982.06
2023-10-11T08:16:51.524Z,100976.44
2023-10-11T08:19:57.549Z,100974.38
2023-10-11T08:23:09.814Z,100978.34
2023-10-11T08:26:16.623Z,100984.31
2023-10-11T08:29:33.760Z,100979.44
2023-10-11T08:32:50.077Z,100976.50
2023-10-11T08:35:56.768Z,100973.97
2023-10-11T08:39:01.802Z,100974.22
2023-10-11T08:42:11.809Z,100973.34
2023-10-11T08:45:17.524Z,100964.69
2023-10-11T08:48:26.967Z,100958.22
2023-10-11T08:51:38.382Z,100965.97
2023-10-11T08:54:42.466Z,100964.88
2023-10-11T08:57:48.530Z,100960.22
2023-10-11T09:00:56.487Z,100956.78
2023-10-11T09:04:17.946Z,100954.28
2023-10-11T09:07:38.985Z,100959.84
2023-10-11T09:10:42.164Z,100953.97
2023-10-11T09:13:48.143Z,100938.16
2023-10-11T09:16:53.546Z,100936.91
2023-10-11T09:20:01.872Z,100940.03
2023-10-11T09:23:07.274Z,100938.13
2023-10-11T09:26:10.796Z,100939.56
2023-10-11T09:29:25.566Z,100941.75
2023-10-11T09:32:35.693Z,100940.72
2023-10-11T09:35:38.676Z,100939.91
2023-10-11T09:38:44.661Z,100938.28
2023-10-11T09:41:55.383Z,100932.09
2023-10-11T09:45:00.830Z,100931.25
2023-10-11T09:48:07.609Z,100938.31
2023-10-11T09:51:15.788Z,100929.44
2023-10-11T09:54:19.516Z,100937.09
2023-10-11T09:57:35.154Z,100937.84
2023-10-11T10:00:52.470Z,100929.13
2023-10-11T10:03:56.117Z,100931.00
2023-10-11T10:07:14.851Z,100935.34
2023-10-11T10:10:27.247Z,100927.34
2023-10-11T10:13:50.837Z,100929.31
2023-10-11T10:17:28.574Z,100926.78
2023-10-11T10:20:45.903Z,100927.81
2023-10-11T10:23:53.388Z,100923.31
2023-10-11T10:26:56.693Z,100917.00
2023-10-11T10:30:01.743Z,100914.81
2023-10-11T10:33:26.423Z,100915.91
2023-10-11T10:36:32.885Z,100910.50
2023-10-11T10:39:48.229Z,100897.16
2023-10-11T10:43:29.673Z,100900.12
2023-10-11T10:46:34.340Z,100896.28
2023-10-11T10:49:45.808Z,100898.25
2023-10-11T10:52:54.782Z,100895.16
2023-10-11T10:55:59.648Z,100891.28
2023-10-11T10:59:15.749Z,100886.47
2023-10-11T11:02:20.963Z,100885.41
2023-10-11T11:05:32.722Z,100883.41
2023-10-11T11:08:39.053Z,100879.44
2023-10-11T11:11:45.398Z,100869.94
2023-10-11T11:15:09.845Z,100870.28
2023-10-11T11:18:16.480Z,100872.16
2023-10-11T11:21:27.352Z,100865.81
2023-10-11T11:24:36.483Z,100868.66
2023-10-11T11:27:44.780Z,100870.28
2023-10-11T11:30:53.863Z,100860.19
2023-10-11T11:34:14.641Z,100860.03
2023-10-11T11:37:22.256Z,100857.25
2023-10-11T11:40:27.186Z,100843.03
2023-10-11T11:43:35.226Z,100845.88
2023-10-11T11:46:38.843Z,100851.47
2023-10-11T11:49:42.338Z,100844.50
2023-10-11T11:52:46.948Z,100845.72
2023-10-11T11:55:50.955Z,100843.28
2023-10-11T11:59:01.736Z,100840.87
2023-10-11T12:02:10.183Z,100843.56
2023-10-11T12:05:14.587Z,100834.91
2023-10-11T12:08:20.499Z,100831.53
2023-10-11T12:11:24.371Z,100828.72
2023-10-11T12:14:27.523Z,100822.41
2023-10-11T12:17:30.929Z,100822.53
2023-10-11T12:20:37.757Z,100813.16
2023-10-11T12:23:53.229Z,100819.22
2023-10-11T12:26:59.658Z,100818.28
2023-10-11T12:30:09.550Z,100821.91
2023-10-11T12:33:12.808Z,100811.62
2023-10-11T12:36:21.872Z,100807.78
2023-10-11T12:39:26.779Z,100803.37
2023-10-11T12:42:30.248Z,100802.75
2023-10-11T12:45:33.768Z,100795.16
2023-10-11T12:48:38.690Z,100785.34
2023-10-11T12:51:43.609Z,100784.53
2023-10-11T12:54:46.823Z,100776.56
2023-10-11T12:57:49.896Z,100774.81
2023-10-11T13:00:53.313Z,100771.09
2023-10-11T13:04:07.379Z,100774.53
2023-10-11T13:07:15.493Z,100762.84
2023-10-11T13:10:18.461Z,100770.59
2023-10-11T13:13:23.015Z,100774.94
2023-10-11T13:16:28.769Z,100757.53
2023-10-11T13:19:32.864Z,100766.19
2023-10-11T13:22:36.420Z,100761.97
2023-10-11T13:25:39.614Z,100757.31
2023-10-11T13:28:43.386Z,100755.25
2023-10-11T13:31:47.772Z,100762.13
2023-10-11T13:34:53.106Z,100752.28
2023-10-11T13:37:56.655Z,100764.66
2023-10-11T13:41:02.909Z,100762.06
2023-10-11T13:44:06.500Z,100757.66
2023-10-11T13:47:10.770Z,100752.13
2023-10-11T13:50:36.950Z,100762.97
2023-10-11T13:53:42.933Z,100750.16
2023-10-11T13:56:45.949Z,100746.03
2023-10-11T13:59:52.090Z,100739.66
2023-10-11T14:03:15.779Z,100742.56
2023-10-11T14:06:32.134Z,100747.62
2023-10-11T14:09:35.028Z,100744.34
2023-10-11T14:12:38.949Z,100739.69
2023-10-11T14:15:42.690Z,100733.56
2023-10-11T14:18:46.094Z,100730.75
2023-10-11T14:21:49.286Z,100722.81
2023-10-11T14:24:53.673Z,100723.69
2023-10-11T14:27:56.429Z,100718.37
2023-10-11T14:31:01.956Z,100709.78
2023-10-11T14:34:05.887Z,100707.22
2023-10-11T14:37:13.540Z,100701.22
2023-10-11T14:40:17.440Z,100692.03
2023-10-11T14:43:21.810Z,100697.19
2023-10-11T14:46:27.154Z,100697.00
2023-10-11T14:49:30.596Z,100697.38
2023-10-11T14:52:33.462Z,100693.41
2023-10-11T14:55:36.675Z,100684.75
2023-10-11T14:58:39.512Z,100683.88
2023-10-11T15:01:43.257Z,100691.56
2023-10-11T15:04:46.210Z,100686.09
2023-10-11T15:07:54.146Z,100697.31
2023-10-11T15:10:57.281Z,100703.16
2023-10-11T15:14:05.243Z,100698.88
2023-10-11T15:17:11.617Z,100695.28
2023-10-11T15:20:15.682Z,100695.34
2023-10-11T15:23:20.021Z,100688.56
2023-10-11T15:26:23.285Z,100695.91
2023-10-11T15:29:26.219Z,100689.88
2023-10-11T15:32:33.285Z,100703.38
2023-10-11T15:35:36.774Z,100696.12
2023-10-11T15:38:40.012Z,100700.25
2023-10-11T15:41:45.326Z,100700.44
2023-10-11T15:44:48.561Z,100696.16
2023-10-11T15:47:51.481Z,100696.94
2023-10-11T15:51:05.265Z,100688.31
2023-10-11T15:54:10.958Z,100689.81
2023-10-11T15:57:16.147Z,100690.12
2023-10-11T16:00:21.496Z,100696.44
2023-10-11T16:03:25.685Z,100692.56
2023-10-11T16:06:29.701Z,100696.03
2023-10-11T16:09:36.531Z,100681.37
2023-10-11T16:12:43.348Z,100688.94
2023-10-11T16:15:46.940Z,100687.66
2023-10-11T16:18:50.104Z,100685.19
2023-10-11T16:21:56.472Z,100686.16
2023-10-11T16:25:00.509Z,100692.66
2023-10-11T16:28:03.718Z,100681.50
2023-10-11T16:31:09.355Z,100691.13
2023-10-11T16:34:12.643Z,100697.13
2023-10-11T16:37:15.545Z,100703.12
2023-10-11T16:40:19.719Z,100705.50
2023-10-11T16:43:22.647Z,100716.03
2023-10-11T16:49:32.805Z,100724.31
2023-10-11T16:52:35.889Z,100733.81
2023-10-11T16:55:39.545Z,100728.75
2023-10-11T16:58:46.042Z,100723.53
2023-10-11T17:01:51.368Z,100734.44
2023-10-11T17:04:55.953Z,100733.31
2023-10-11T17:07:59.901Z,100723.84
2023-10-11T17:11:11.427Z,100736.56
2023-10-11T17:14:16.761Z,100734.16
2023-10-11T17:17:21.121Z,100729.31
2023-10-11T17:20:24.953Z,100736.56
2023-10-11T17:23:28.831Z,100730.94
2023-10-11T17:26:33.921Z,100729.25
2023-10-11T17:29:37.773Z,100729.75
2023-10-11T17:32:44.606Z,100727.84
2023-10-11T17:35:49.092Z,100722.31
2023-10-11T17:38:52.722Z,100724.78
2023-10-11T17:41:59.350Z,100715.25
2023-10-11T17:45:03.058Z,100721.78
2023-10-11T17:48:07.625Z,100724.25
2023-10-11T17:51:20.167Z,100721.03
2023-10-11T17:54:24.668Z,100726.69
2023-10-11T17:57:29.218Z,100724.69
2023-10-11T18:00:39.360Z,100728.31
2023-10-11T18:03:46.538Z,100720.69
2023-10-11T18:06:55.093Z,100718.69
2023-10-11T18:10:06.232Z,100714.78
2023-10-11T18:13:13.011Z,100717.97
2023-10-11T18:16:22.225Z,100716.38
2023-10-11T18:19:28.178Z,100715.59
2023-10-11T18:22:33.363Z,100712.75
2023-10-11T18:25:38.786Z,100708.34
2023-10-11T18:28:48.948Z,100713.19
2023-10-11T18:31:56.175Z,100712.38
2023-10-11T18:35:05.771Z,100707.94
2023-10-11T18:38:12.087Z,100700.31
2023-10-11T18:41:27.244Z,100704.31
2023-10-11T18:44:34.959Z,100705.09
2023-10-11T18:47:41.909Z,100705.09
2023-10-11T18:50:49.754Z,100699.44
2023-10-11T18:54:00.324Z,100701.87
2023-10-11T18:57:08.786Z,100698.63
2023-10-11T19:00:19.309Z,100690.31
2023-10-11T19:03:26.921Z,100695.13
2023-10-11T19:06:34.143Z,100691.94
2023-10-11T19:09:41.774Z,100693.12
2023-10-11T19:12:51.668Z,100691.94
2023-10-11T19:16:01.459Z,100691.94
2023-10-11T19:19:15.362Z,100693.16
2023-10-11T19:22:18.670Z,100689.97
2023-10-11T19:25:29.748Z,100694.78
2023-10-11T19:28:33.414Z,100703.94
2023-10-11T19:31:38.847Z,100702.34
2023-10-11T19:34:44.895Z,100704.34
2023-10-11T19:37:49.824Z,100696.38
2023-10-11T19:41:02.452Z,100703.19
2023-10-11T19:44:07.339Z,100706.44
2023-10-11T19:47:10.821Z,100702.88
2023-10-11T19:50:16.299Z,100706.09
2023-10-11T19:53:21.156Z,100700.53
2023-10-11T19:56:26.511Z,100699.72
2023-10-11T19:59:31.820Z,100702.16
2023-10-11T20:02:37.651Z,100702.16
2023-10-11T20:05:43.014Z,100700.97
2023-10-11T20:08:46.848Z,100698.19
2023-10-11T20:11:51.904Z,100697.81
2023-10-11T20:14:56.900Z,100699.84
2023-10-11T20:18:00.675Z,100713.09
2023-10-11T20:21:06.399Z,100708.28
2023-10-11T20:24:11.762Z,100721.53
2023-10-11T20:27:15.056Z,100717.50
2023-10-11T20:30:27.953Z,100713.94
2023-10-11T20:33:33.553Z,100711.16
2023-10-11T20:36:38.176Z,100702.78
2023-10-11T20:39:41.260Z,100700.75
2023-10-11T20:42:45.009Z,100700.75
2023-10-11T20:45:48.066Z,100702.75
2023-10-11T20:48:51.333Z,100701.53
2023-10-11T20:51:54.923Z,100701.53
2023-10-11T20:54:58.721Z,100700.75
2023-10-11T20:58:15.959Z,100711.22
2023-10-11T21:01:19.558Z,100710.34
2023-10-11T21:04:24.573Z,100714.81
2023-10-11T21:07:28.993Z,100705.25
2023-10-11T21:10:36.092Z,100712.09
2023-10-11T21:13:39.275Z,100703.25
2023-10-11T21:16:42.249Z,100701.25
2023-10-11T21:19:47.040Z,100700.06
2023-10-11T21:22:49.898Z,100705.66
2023-10-11T21:26:07.369Z,100704.09
2023-10-11T21:29:13.902Z,100692.91
2023-10-11T21:32:17.554Z,100691.69
2023-10-11T21:35:23.458Z,100688.84
2023-10-11T21:38:26.750Z,100687.25
2023-10-11T21:41:30.045Z,100692.00
2023-10-11T21:44:33.691Z,100689.66
2023-10-11T21:47:43.916Z,100686.38
2023-10-11T21:50:49.530Z,100689.62
2023-10-11T21:53:59.832Z,100682.41
2023-10-11T21:57:03.029Z,100676.44
2023-10-11T22:00:13.613Z,100670.06
2023-10-11T22:03:21.482Z,100670.06
2023-10-11T22:06:25.117Z,100666.44
2023-10-11T22:09:29.421Z,100668.03
2023-10-11T22:12:33.603Z,100656.41
2023-10-11T22:15:37.017Z,100656.03
2023-10-11T22:18:42.920Z,100666.84
2023-10-11T22:21:47.501Z,100655.66
2023-10-11T22:24:51.343Z,100649.25
2023-10-11T22:28:01.290Z,100644.44
2023-10-11T22:31:04.226Z,100639.22
2023-10-11T22:34:08.788Z,100641.22
2023-10-11T22:37:30.148Z,100638.47
2023-10-11T22:40:35.152Z,100639.69
2023-10-11T22:43:37.934Z,100647.66
2023-10-11T22:46:43.479Z,100637.63
2023-10-11T22:49:47.128Z,100631.28
2023-10-11T22:52:51.046Z,100636.06
2023-10-11T22:56:00.042Z,100630.47
2023-10-11T22:59:07.431Z,100618.47
2023-10-11T23:02:11.978Z,100623.66
2023-10-11T23:05:16.180Z,100616.84
2023-10-11T23:08:19.156Z,100622.03
2023-10-11T23:11:23.734Z,100615.22
2023-10-11T23:14:27.023Z,100627.25
2023-10-11T23:17:31.068Z,100616.03
2023-10-11T23:20:40.447Z,100616.03
2023-10-11T23:23:43.808Z,100615.22
2023-10-11T23:26:54.730Z,100604.41
2023-10-11T23:30:01.456Z,100616.44
2023-10-11T23:33:10.479Z,100616.44
2023-10-11T23:36:13.626Z,100607.22
2023-10-11T23:39:16.510Z,100615.63
2023-10-11T23:42:23.128Z,100612.03
2023-10-11T23:45:26.070Z,100604.44
2023-10-11T23:48:34.631Z,100599.19
2023-10-11T23:51:43.431Z,100599.59
2023-10-11T23:54:50.620Z,100588.41
2023-10-11T23:57:54.879Z,100592.03
